Time;durP1;ratioP1;P1;durP2;ratioP2;P2;SDS_P1;SDS_P2;PMS_P1;PMS_P2;Temp;Humidity;BMP_temperature;BMP_pressure;BME280_temperature;BME280_humidity;BME280_pressure;Samples;Min_cycle;Max_cycle;Signal;HPM_P1;HPM_P2
2022/07/28 00:01:04;;;;;;;0.98;0.70;;;;;;;;;;4601383;27;20072;-58
2022/07/28 00:03:14;;;;;;;1.05;0.80;;;;;;;;;;4601520;27;20034;-59
2022/07/28 00:05:25;;;;;;;0.70;0.70;;;;;;;;;;4599695;27;20057;-58
2022/07/28 00:07:35;;;;;;;0.88;0.80;;;;;;;;;;4598751;27;20045;-58
2022/07/28 00:09:46;;;;;;;1.30;0.80;;;;;;;;;;4600761;27;20030;-58
2022/07/28 00:11:56;;;;;;;0.98;0.80;;;;;;;;;;4601573;27;20027;-58
2022/07/28 00:14:07;;;;;;;1.20;0.90;;;;;;;;;;4600352;27;20781;-58
2022/07/28 00:16:17;;;;;;;1.35;0.90;;;;;;;;;;4600164;27;20035;-58
2022/07/28 00:18:28;;;;;;;1.13;0.85;;;;;;;;;;4600511;27;20044;-58
2022/07/28 00:20:38;;;;;;;1.50;0.90;;;;;;;;;;4601252;27;20075;-58
2022/07/28 00:22:49;;;;;;;1.30;0.88;;;;;;;;;;4600300;27;20027;-58
2022/07/28 00:24:59;;;;;;;0.85;0.80;;;;;;;;;;4600619;27;20057;-59
2022/07/28 00:27:09;;;;;;;1.15;0.90;;;;;;;;;;4600139;27;20054;-58
2022/07/28 00:29:20;;;;;;;1.13;0.70;;;;;;;;;;4600421;27;20060;-58
2022/07/28 00:31:31;;;;;;;1.20;0.90;;;;;;;;;;4600416;27;20031;-58
2022/07/28 00:33:41;;;;;;;0.82;0.82;;;;;;;;;;4601656;27;20107;-59
2022/07/28 00:35:51;;;;;;;1.05;0.90;;;;;;;;;;4599237;27;20040;-58
2022/07/28 00:38:02;;;;;;;0.90;0.80;;;;;;;;;;4602077;27;20092;-59
2022/07/28 00:40:12;;;;;;;1.38;0.90;;;;;;;;;;4600517;27;20039;-58
2022/07/28 00:42:23;;;;;;;1.70;0.98;;;;;;;;;;4601144;27;20372;-58
2022/07/28 00:44:33;;;;;;;2.13;0.98;;;;;;;;;;4602763;27;20175;-59
2022/07/28 00:46:44;;;;;;;1.52;1.13;;;;;;;;;;4600500;27;20054;-58
2022/07/28 00:48:54;;;;;;;1.35;1.10;;;;;;;;;;4598922;27;20035;-58
2022/07/28 00:51:08;;;;;;;1.27;1.00;;;;;;;;;;4601243;27;20032;-59
2022/07/28 00:53:18;;;;;;;1.30;1.10;;;;;;;;;;4600992;27;20050;-58
2022/07/28 00:55:29;;;;;;;1.83;1.30;;;;;;;;;;4596517;27;20036;-58
2022/07/28 00:57:39;;;;;;;1.48;1.10;;;;;;;;;;4599830;27;20028;-58
2022/07/28 00:59:50;;;;;;;1.75;0.93;;;;;;;;;;4601001;27;20039;-59
2022/07/28 01:02:00;;;;;;;1.55;0.90;;;;;;;;;;4599620;27;20046;-58
2022/07/28 01:04:11;;;;;;;1.25;1.10;;;;;;;;;;4598770;27;20126;-59
2022/07/28 01:06:42;;;;;;;1.13;0.80;;;;;;;;;;4601435;27;20033;-58
2022/07/28 01:09:25;;;;;;;1.00;0.90;;;;;;;;;;4603006;27;20599;-58
2022/07/28 01:11:58;;;;;;;1.30;1.00;;;;;;;;;;4602410;27;20039;-58
2022/07/28 01:14:23;;;;;;;1.63;1.00;;;;;;;;;;4601221;27;20992;-58
2022/07/28 01:16:38;;;;;;;1.92;1.10;;;;;;;;;;4601373;27;21038;-59
2022/07/28 01:19:04;;;;;;;1.40;1.00;;;;;;;;;;4600257;27;20676;-60
2022/07/28 01:21:22;;;;;;;0.93;0.80;;;;;;;;;;4602076;27;20028;-58
2022/07/28 01:23:32;;;;;;;1.48;1.00;;;;;;;;;;4591867;27;20620;-58
2022/07/28 01:26:16;;;;;;;2.03;1.08;;;;;;;;;;4602415;27;20067;-58
2022/07/28 01:28:43;;;;;;;1.05;0.85;;;;;;;;;;4602754;27;20031;-57
2022/07/28 01:30:55;;;;;;;1.20;1.10;;;;;;;;;;4594954;27;20039;-57
2022/07/28 01:33:14;;;;;;;1.63;0.80;;;;;;;;;;4594705;27;20971;-57
2022/07/28 01:35:28;;;;;;;1.10;0.98;;;;;;;;;;4602893;27;20041;-57
2022/07/28 01:37:42;;;;;;;1.75;1.10;;;;;;;;;;4601933;27;20531;-57
2022/07/28 01:39:55;;;;;;;1.58;0.90;;;;;;;;;;4602048;27;21385;-57
2022/07/28 01:42:06;;;;;;;1.55;0.93;;;;;;;;;;4605703;27;20031;-58
2022/07/28 01:44:20;;;;;;;2.92;0.90;;;;;;;;;;4602087;27;20035;-59
2022/07/28 01:46:31;;;;;;;1.20;1.10;;;;;;;;;;4605848;27;20036;-57
2022/07/28 01:48:42;;;;;;;1.30;1.00;;;;;;;;;;4578726;27;20894;-57
2022/07/28 01:50:54;;;;;;;2.35;1.10;;;;;;;;;;4604135;27;20035;-57
2022/07/28 01:53:08;;;;;;;1.38;0.88;;;;;;;;;;4603057;27;20601;-57
2022/07/28 01:55:21;;;;;;;1.55;1.00;;;;;;;;;;4601150;27;20024;-57
2022/07/28 01:57:32;;;;;;;1.52;1.00;;;;;;;;;;4602656;27;20867;-58
2022/07/28 01:59:42;;;;;;;1.10;0.82;;;;;;;;;;4604780;27;20027;-57
2022/07/28 02:01:53;;;;;;;1.42;1.05;;;;;;;;;;4588141;27;20071;-57
2022/07/28 02:04:05;;;;;;;0.93;0.90;;;;;;;;;;4601065;27;20043;-57
2022/07/28 02:06:17;;;;;;;1.38;1.05;;;;;;;;;;4601171;27;20661;-57
2022/07/28 02:08:29;;;;;;;1.00;0.90;;;;;;;;;;4603847;27;20023;-57
2022/07/28 02:10:41;;;;;;;0.90;0.80;;;;;;;;;;4604628;27;20031;-57
2022/07/28 02:12:54;;;;;;;1.25;0.80;;;;;;;;;;4598221;27;20031;-57
2022/07/28 02:15:07;;;;;;;1.95;1.10;;;;;;;;;;4592313;27;20034;-57
2022/07/28 02:17:19;;;;;;;1.10;1.00;;;;;;;;;;4601254;27;20080;-58
2022/07/28 02:19:30;;;;;;;1.58;0.88;;;;;;;;;;4601303;27;20142;-57
2022/07/28 02:21:41;;;;;;;1.08;0.88;;;;;;;;;;4599688;27;20399;-57
2022/07/28 02:23:53;;;;;;;1.02;0.82;;;;;;;;;;4600340;27;20596;-57
2022/07/28 02:26:07;;;;;;;1.35;1.10;;;;;;;;;;4598415;27;20039;-57
2022/07/28 02:28:20;;;;;;;1.23;1.02;;;;;;;;;;4588881;27;20067;-57
2022/07/28 02:30:42;;;;;;;2.38;0.90;;;;;;;;;;4603409;27;20038;-57
2022/07/28 02:32:55;;;;;;;1.10;0.80;;;;;;;;;;4599708;27;20054;-57
2022/07/28 02:35:09;;;;;;;1.20;1.00;;;;;;;;;;4605773;27;20585;-58
2022/07/28 02:37:21;;;;;;;1.30;0.90;;;;;;;;;;4600299;27;20086;-57
2022/07/28 02:39:41;;;;;;;1.35;0.90;;;;;;;;;;4601207;27;20095;-57
2022/07/28 02:41:58;;;;;;;2.13;0.93;;;;;;;;;;4585572;27;20575;-57
2022/07/28 02:44:15;;;;;;;1.10;1.00;;;;;;;;;;4599927;27;20035;-58
2022/07/28 02:46:28;;;;;;;1.20;1.00;;;;;;;;;;4602441;27;20036;-56
2022/07/28 02:48:40;;;;;;;1.15;0.90;;;;;;;;;;4603017;27;20038;-57
2022/07/28 02:50:53;;;;;;;1.15;0.90;;;;;;;;;;4601602;27;20127;-58
2022/07/28 02:53:04;;;;;;;1.55;1.00;;;;;;;;;;4599333;27;21008;-57
2022/07/28 02:55:15;;;;;;;1.10;0.90;;;;;;;;;;4598427;27;20117;-57
2022/07/28 02:57:26;;;;;;;1.50;1.35;;;;;;;;;;4599814;27;20043;-59
2022/07/28 02:59:36;;;;;;;1.15;0.93;;;;;;;;;;4586958;27;20064;-57
2022/07/28 03:01:48;;;;;;;1.10;0.93;;;;;;;;;;4610893;27;20036;-57
2022/07/28 03:03:58;;;;;;;1.40;0.90;;;;;;;;;;4604595;27;20054;-56
2022/07/28 03:06:09;;;;;;;1.55;1.00;;;;;;;;;;4610704;27;20024;-57
2022/07/28 03:08:19;;;;;;;1.45;1.02;;;;;;;;;;4601760;27;20054;-57
2022/07/28 03:10:30;;;;;;;1.75;1.20;;;;;;;;;;4601680;27;20153;-57
2022/07/28 03:12:40;;;;;;;1.25;1.15;;;;;;;;;;4602511;27;20490;-57
2022/07/28 03:14:51;;;;;;;1.20;1.10;;;;;;;;;;4601430;27;20050;-57
2022/07/28 03:17:02;;;;;;;2.17;1.30;;;;;;;;;;4599161;27;20046;-57
2022/07/28 03:19:13;;;;;;;1.88;1.35;;;;;;;;;;4601443;27;20035;-57
2022/07/28 03:21:23;;;;;;;1.40;1.23;;;;;;;;;;4602196;27;20396;-57
2022/07/28 03:23:38;;;;;;;1.60;1.20;;;;;;;;;;4601604;27;20606;-57
2022/07/28 03:25:50;;;;;;;1.63;1.30;;;;;;;;;;4600422;27;20039;-57
2022/07/28 03:28:02;;;;;;;1.55;1.30;;;;;;;;;;4585265;27;20032;-57
2022/07/28 03:30:19;;;;;;;1.77;1.33;;;;;;;;;;4602386;27;20032;-57
2022/07/28 03:32:32;;;;;;;2.90;1.50;;;;;;;;;;4602790;27;20537;-57
2022/07/28 03:34:42;;;;;;;1.63;1.13;;;;;;;;;;4601747;27;20028;-57
2022/07/28 03:37:00;;;;;;;2.20;1.60;;;;;;;;;;4603152;27;20036;-57
2022/07/28 03:39:14;;;;;;;2.08;1.30;;;;;;;;;;4605273;27;20053;-57
2022/07/28 03:41:25;;;;;;;2.22;1.60;;;;;;;;;;4600695;27;20602;-57
2022/07/28 03:43:36;;;;;;;1.92;1.20;;;;;;;;;;4601966;27;20590;-57
2022/07/28 03:45:47;;;;;;;2.25;1.27;;;;;;;;;;4601189;27;20065;-57
2022/07/28 03:47:57;;;;;;;1.95;1.10;;;;;;;;;;4602817;27;20459;-57
2022/07/28 03:50:08;;;;;;;1.90;1.20;;;;;;;;;;4599618;27;20131;-57
2022/07/28 03:52:18;;;;;;;1.83;1.20;;;;;;;;;;4601891;27;20027;-56
2022/07/28 03:54:29;;;;;;;1.48;1.20;;;;;;;;;;4600012;27;20019;-57
2022/07/28 03:56:39;;;;;;;1.20;0.95;;;;;;;;;;4598092;27;20634;-58
2022/07/28 03:58:50;;;;;;;1.30;1.10;;;;;;;;;;4601334;27;20484;-57
2022/07/28 04:01:00;;;;;;;1.40;1.25;;;;;;;;;;4602169;27;20075;-57
2022/07/28 04:03:11;;;;;;;1.75;1.25;;;;;;;;;;4600500;27;20129;-57
2022/07/28 04:05:21;;;;;;;1.42;1.13;;;;;;;;;;4603310;27;20070;-58
2022/07/28 04:07:32;;;;;;;2.45;1.10;;;;;;;;;;4601402;27;20084;-57
2022/07/28 04:09:42;;;;;;;1.50;1.08;;;;;;;;;;4602041;27;20104;-57
2022/07/28 04:11:52;;;;;;;2.25;1.10;;;;;;;;;;4601177;27;20040;-57
2022/07/28 04:14:03;;;;;;;2.15;1.00;;;;;;;;;;4601174;27;20097;-57
2022/07/28 04:16:13;;;;;;;1.90;0.93;;;;;;;;;;4600970;27;20035;-57
2022/07/28 04:18:24;;;;;;;2.40;1.10;;;;;;;;;;4601429;27;20136;-57
2022/07/28 04:20:34;;;;;;;1.33;1.02;;;;;;;;;;4601407;27;20028;-57
2022/07/28 04:22:45;;;;;;;2.17;1.20;;;;;;;;;;4600746;27;20043;-57
2022/07/28 04:24:56;;;;;;;1.67;1.20;;;;;;;;;;4600583;27;20030;-57
2022/07/28 04:27:07;;;;;;;1.63;1.30;;;;;;;;;;4600175;27;20043;-57
2022/07/28 04:29:18;;;;;;;1.13;1.02;;;;;;;;;;4601545;27;20035;-57
2022/07/28 04:31:28;;;;;;;2.65;1.33;;;;;;;;;;4601023;27;20039;-57
2022/07/28 04:33:39;;;;;;;1.25;1.10;;;;;;;;;;4601516;27;20091;-57
2022/07/28 04:35:52;;;;;;;1.88;1.40;;;;;;;;;;4600586;27;20127;-58
2022/07/28 04:38:03;;;;;;;1.55;1.17;;;;;;;;;;4609953;27;20112;-58
2022/07/28 04:40:14;;;;;;;1.58;1.30;;;;;;;;;;4601644;27;20042;-57
2022/07/28 04:42:24;;;;;;;1.70;1.30;;;;;;;;;;4601280;27;20593;-58
2022/07/28 04:44:39;;;;;;;1.40;1.08;;;;;;;;;;4599642;27;20024;-59
2022/07/28 04:46:50;;;;;;;1.40;1.20;;;;;;;;;;4598318;27;20075;-58
2022/07/28 04:49:00;;;;;;;1.50;1.20;;;;;;;;;;4614496;27;20126;-57
2022/07/28 04:51:11;;;;;;;1.50;1.10;;;;;;;;;;4597081;27;20030;-57
2022/07/28 04:53:21;;;;;;;0.95;0.90;;;;;;;;;;4598911;27;20118;-56
2022/07/28 04:55:32;;;;;;;1.90;1.05;;;;;;;;;;4599522;27;20487;-57
2022/07/28 04:57:43;;;;;;;1.13;1.02;;;;;;;;;;4599711;27;20040;-57
2022/07/28 04:59:53;;;;;;;1.95;1.20;;;;;;;;;;4600872;27;20409;-58
2022/07/28 05:02:04;;;;;;;1.60;1.10;;;;;;;;;;4602008;27;20027;-57
2022/07/28 05:04:14;;;;;;;1.42;1.15;;;;;;;;;;4604725;27;20384;-57
2022/07/28 05:06:25;;;;;;;2.38;1.30;;;;;;;;;;4604289;27;20043;-58
2022/07/28 05:08:35;;;;;;;1.23;0.90;;;;;;;;;;4602734;27;20581;-57
2022/07/28 05:10:46;;;;;;;1.33;1.20;;;;;;;;;;4604078;27;20061;-57
2022/07/28 05:12:56;;;;;;;1.83;1.23;;;;;;;;;;4604573;27;20043;-57
2022/07/28 05:15:08;;;;;;;1.52;1.00;;;;;;;;;;4604205;27;20040;-57
2022/07/28 05:17:18;;;;;;;1.67;1.15;;;;;;;;;;4605369;27;20027;-57
2022/07/28 05:19:29;;;;;;;2.40;1.33;;;;;;;;;;4603150;27;20043;-59
2022/07/28 05:21:39;;;;;;;1.88;1.20;;;;;;;;;;4605050;27;20039;-58
2022/07/28 05:23:50;;;;;;;1.17;1.08;;;;;;;;;;4605508;27;20053;-57
2022/07/28 05:26:00;;;;;;;1.60;1.17;;;;;;;;;;4601541;27;20648;-58
2022/07/28 05:28:10;;;;;;;1.33;1.00;;;;;;;;;;4604353;27;20023;-57
2022/07/28 05:30:21;;;;;;;1.73;1.17;;;;;;;;;;4605340;27;20040;-58
2022/07/28 05:32:31;;;;;;;1.50;0.90;;;;;;;;;;4606005;27;20039;-57
2022/07/28 05:34:42;;;;;;;1.25;0.82;;;;;;;;;;4604089;27;20135;-57
2022/07/28 05:36:52;;;;;;;1.33;0.93;;;;;;;;;;4603407;27;20043;-58
2022/07/28 05:39:03;;;;;;;1.77;1.15;;;;;;;;;;4604473;27;20146;-56
2022/07/28 05:41:13;;;;;;;1.15;1.00;;;;;;;;;;4603828;27;20032;-57
2022/07/28 05:43:24;;;;;;;2.80;1.25;;;;;;;;;;4603743;27;20134;-57
2022/07/28 05:45:34;;;;;;;1.38;1.00;;;;;;;;;;4601707;27;20114;-57
2022/07/28 05:47:51;;;;;;;1.70;1.20;;;;;;;;;;4603852;27;20041;-57
2022/07/28 05:50:02;;;;;;;1.70;1.13;;;;;;;;;;4603724;27;20448;-57
2022/07/28 05:52:12;;;;;;;1.55;1.10;;;;;;;;;;4603976;27;20108;-58
2022/07/28 05:54:23;;;;;;;1.08;0.73;;;;;;;;;;4605193;27;20043;-57
2022/07/28 05:56:33;;;;;;;1.17;1.00;;;;;;;;;;4603264;27;20121;-57
2022/07/28 05:58:44;;;;;;;1.13;0.90;;;;;;;;;;4606268;27;20035;-57
2022/07/28 06:00:57;;;;;;;1.08;0.88;;;;;;;;;;4604057;27;20068;-57
2022/07/28 06:03:08;;;;;;;1.55;1.00;;;;;;;;;;4603061;27;20614;-57
2022/07/28 06:05:21;;;;;;;1.45;1.02;;;;;;;;;;4602425;27;20073;-57
2022/07/28 06:07:31;;;;;;;2.13;1.20;;;;;;;;;;4603029;27;20016;-57
2022/07/28 06:09:42;;;;;;;1.10;1.00;;;;;;;;;;4602575;27;20138;-57
2022/07/28 06:11:52;;;;;;;1.15;1.00;;;;;;;;;;4604791;27;20042;-57
2022/07/28 06:14:03;;;;;;;2.00;1.10;;;;;;;;;;4603441;27;20067;-57
2022/07/28 06:16:13;;;;;;;1.42;0.90;;;;;;;;;;4603285;27;20024;-57
2022/07/28 06:18:23;;;;;;;3.03;1.23;;;;;;;;;;4603220;27;20043;-58
2022/07/28 06:20:34;;;;;;;1.90;1.08;;;;;;;;;;4603901;27;20026;-57
2022/07/28 06:22:46;;;;;;;2.33;1.13;;;;;;;;;;4603153;27;20039;-57
2022/07/28 06:24:57;;;;;;;1.23;0.98;;;;;;;;;;4604469;27;20030;-57
2022/07/28 06:27:07;;;;;;;1.70;1.00;;;;;;;;;;4602872;27;20739;-58
2022/07/28 06:29:19;;;;;;;1.20;0.90;;;;;;;;;;4602892;27;20030;-57
2022/07/28 06:31:29;;;;;;;1.25;0.90;;;;;;;;;;4602806;27;20226;-57
2022/07/28 06:33:40;;;;;;;0.85;0.68;;;;;;;;;;4603326;27;20023;-59
2022/07/28 06:35:50;;;;;;;1.42;0.70;;;;;;;;;;4604962;27;20484;-59
2022/07/28 06:38:01;;;;;;;1.38;0.70;;;;;;;;;;4602583;27;21037;-59
2022/07/28 06:40:12;;;;;;;1.10;0.70;;;;;;;;;;4601508;27;20798;-59
2022/07/28 06:42:23;;;;;;;0.95;0.70;;;;;;;;;;4611449;27;20100;-59
2022/07/28 06:44:34;;;;;;;0.93;0.60;;;;;;;;;;4601394;27;20066;-59
2022/07/28 06:46:44;;;;;;;1.10;0.77;;;;;;;;;;4601947;27;20035;-59
2022/07/28 06:48:55;;;;;;;2.03;1.00;;;;;;;;;;4602712;27;20035;-59
2022/07/28 06:51:05;;;;;;;1.13;0.73;;;;;;;;;;4601581;27;20077;-59
2022/07/28 06:53:16;;;;;;;1.63;0.80;;;;;;;;;;4603541;27;20051;-59
2022/07/28 06:55:27;;;;;;;1.17;0.73;;;;;;;;;;4602045;27;20200;-59
2022/07/28 06:57:37;;;;;;;1.73;0.63;;;;;;;;;;4603161;27;20219;-59
2022/07/28 06:59:48;;;;;;;1.40;0.80;;;;;;;;;;4602083;27;20043;-59
2022/07/28 07:02:01;;;;;;;0.90;0.70;;;;;;;;;;4602133;27;20071;-58
2022/07/28 07:04:11;;;;;;;0.93;0.73;;;;;;;;;;4601994;27;20035;-60
2022/07/28 07:06:22;;;;;;;1.60;0.70;;;;;;;;;;4601984;27;20071;-59
2022/07/28 07:08:33;;;;;;;1.30;0.73;;;;;;;;;;4602940;27;20480;-59
2022/07/28 07:10:43;;;;;;;2.17;0.70;;;;;;;;;;4601354;27;20035;-59
2022/07/28 07:12:54;;;;;;;1.50;0.60;;;;;;;;;;4602698;27;20040;-59
2022/07/28 07:15:05;;;;;;;0.50;0.50;;;;;;;;;;4601105;27;20019;-59
2022/07/28 07:17:16;;;;;;;1.38;0.70;;;;;;;;;;4602629;27;20741;-58
2022/07/28 07:19:26;;;;;;;1.92;0.70;;;;;;;;;;4602232;27;20058;-59
2022/07/28 07:21:36;;;;;;;1.40;0.70;;;;;;;;;;4599662;27;20031;-57
2022/07/28 07:23:48;;;;;;;1.95;0.88;;;;;;;;;;4602420;27;20138;-59
2022/07/28 07:25:58;;;;;;;0.70;0.60;;;;;;;;;;4599738;27;20088;-59
2022/07/28 07:28:09;;;;;;;0.73;0.60;;;;;;;;;;4601158;27;20083;-60
2022/07/28 07:30:19;;;;;;;0.98;0.60;;;;;;;;;;4603586;27;20020;-59
2022/07/28 07:32:30;;;;;;;0.73;0.65;;;;;;;;;;4602448;27;20047;-59
2022/07/28 07:34:40;;;;;;;0.75;0.70;;;;;;;;;;4602654;27;20447;-59
2022/07/28 07:36:51;;;;;;;1.23;0.65;;;;;;;;;;4602352;27;20032;-59
2022/07/28 07:39:01;;;;;;;1.00;0.70;;;;;;;;;;4601001;27;20039;-58
2022/07/28 07:41:12;;;;;;;0.70;0.60;;;;;;;;;;4601344;27;20046;-59
2022/07/28 07:43:22;;;;;;;1.00;0.77;;;;;;;;;;4602525;27;20036;-59
2022/07/28 07:45:33;;;;;;;0.70;0.50;;;;;;;;;;4616418;27;20039;-60
2022/07/28 07:47:43;;;;;;;1.20;0.70;;;;;;;;;;4602192;27;20498;-59
2022/07/28 07:49:54;;;;;;;1.23;0.57;;;;;;;;;;4600888;27;20451;-59
2022/07/28 07:52:04;;;;;;;1.00;0.60;;;;;;;;;;4603277;27;20035;-59
2022/07/28 07:54:15;;;;;;;1.42;0.50;;;;;;;;;;4601229;27;20051;-59
2022/07/28 07:56:25;;;;;;;1.42;0.60;;;;;;;;;;4600909;27;20032;-60
2022/07/28 07:58:36;;;;;;;1.48;0.60;;;;;;;;;;4601955;27;20028;-58
2022/07/28 08:00:46;;;;;;;1.50;0.50;;;;;;;;;;4600460;27;20031;-59
2022/07/28 08:02:57;;;;;;;1.80;0.50;;;;;;;;;;4599129;27;20031;-59
2022/07/28 08:05:08;;;;;;;0.90;0.50;;;;;;;;;;4600999;27;20430;-58
2022/07/28 08:07:19;;;;;;;2.38;0.60;;;;;;;;;;4601563;27;20028;-58
2022/07/28 08:09:29;;;;;;;0.60;0.50;;;;;;;;;;4601725;27;20030;-58
2022/07/28 08:11:40;;;;;;;2.15;0.60;;;;;;;;;;4601787;27;20043;-58
2022/07/28 08:13:51;;;;;;;0.55;0.40;;;;;;;;;;4600050;27;20609;-58
2022/07/28 08:16:02;;;;;;;1.13;0.60;;;;;;;;;;4603049;27;20134;-58
2022/07/28 08:18:13;;;;;;;0.85;0.47;;;;;;;;;;4601522;27;20076;-58
2022/07/28 08:20:24;;;;;;;0.93;0.57;;;;;;;;;;4599817;27;20064;-58
2022/07/28 08:22:46;;;;;;;0.73;0.50;;;;;;;;;;4603072;27;20035;-58
2022/07/28 08:24:59;;;;;;;1.40;0.70;;;;;;;;;;4600261;27;20035;-58
2022/07/28 08:27:10;;;;;;;0.93;0.47;;;;;;;;;;4574314;22;20163;-60
2022/07/28 08:29:20;;;;;;;1.05;0.60;;;;;;;;;;4554846;28;20045;-59
2022/07/28 08:31:31;;;;;;;1.55;0.55;;;;;;;;;;4564047;28;20043;-59
2022/07/28 08:33:42;;;;;;;0.63;0.50;;;;;;;;;;4564417;28;20456;-59
2022/07/28 08:35:53;;;;;;;0.80;0.40;;;;;;;;;;4546111;28;20029;-59
2022/07/28 08:38:03;;;;;;;1.23;0.65;;;;;;;;;;4564764;28;20024;-59
2022/07/28 08:40:14;;;;;;;1.30;0.60;;;;;;;;;;4563483;28;20039;-59
2022/07/28 08:42:33;;;;;;;1.42;0.65;;;;;;;;;;4545606;28;20040;-59
2022/07/28 08:44:53;;;;;;;0.77;0.50;;;;;;;;;;4550774;28;20040;-59
2022/07/28 08:47:10;;;;;;;0.63;0.55;;;;;;;;;;4560227;28;34188;-59
2022/07/28 08:49:21;;;;;;;0.77;0.50;;;;;;;;;;4550175;28;20036;-59
2022/07/28 08:51:32;;;;;;;0.85;0.50;;;;;;;;;;4545687;28;20041;-60
2022/07/28 08:53:43;;;;;;;1.10;0.60;;;;;;;;;;4547061;28;20195;-59
2022/07/28 08:55:54;;;;;;;1.45;0.60;;;;;;;;;;4551326;28;20199;-60
2022/07/28 08:58:06;;;;;;;0.73;0.50;;;;;;;;;;4562424;28;20618;-59
2022/07/28 09:00:16;;;;;;;0.60;0.50;;;;;;;;;;4564187;28;20052;-62
2022/07/28 09:02:28;;;;;;;1.25;0.60;;;;;;;;;;4563530;28;20127;-60
2022/07/28 09:04:39;;;;;;;1.00;0.60;;;;;;;;;;4562018;28;20035;-59
2022/07/28 09:06:50;;;;;;;1.20;0.60;;;;;;;;;;4531586;28;20048;-60
2022/07/28 09:09:00;;;;;;;2.60;0.80;;;;;;;;;;4563079;28;20086;-61
2022/07/28 09:11:10;;;;;;;1.33;0.50;;;;;;;;;;4546190;28;20067;-58
2022/07/28 09:13:21;;;;;;;1.35;0.60;;;;;;;;;;4563707;28;20104;-60
2022/07/28 09:15:33;;;;;;;1.33;0.80;;;;;;;;;;4546745;28;20043;-59
2022/07/28 09:17:43;;;;;;;0.77;0.50;;;;;;;;;;4563414;28;20028;-58
2022/07/28 09:19:54;;;;;;;0.80;0.60;;;;;;;;;;4564746;28;20020;-58
2022/07/28 09:22:07;;;;;;;2.45;0.75;;;;;;;;;;4563763;28;20095;-57
2022/07/28 09:24:36;;;;;;;1.65;0.73;;;;;;;;;;4555101;28;20131;-59
2022/07/28 09:27:00;;;;;;;2.00;0.63;;;;;;;;;;4532201;28;20044;-58
2022/07/28 09:29:11;;;;;;;1.27;0.75;;;;;;;;;;4532194;28;20037;-58
2022/07/28 09:31:23;;;;;;;1.17;0.60;;;;;;;;;;4545990;28;20041;-58
2022/07/28 09:33:34;;;;;;;1.52;0.50;;;;;;;;;;4546429;28;20103;-59
2022/07/28 09:35:56;;;;;;;1.33;1.00;;;;;;;;;;4547235;28;20111;-60
2022/07/28 09:38:07;;;;;;;1.15;0.60;;;;;;;;;;4551319;28;20032;-58
2022/07/28 09:40:18;;;;;;;0.65;0.60;;;;;;;;;;4562913;28;20477;-58
2022/07/28 09:42:48;;;;;;;1.67;0.50;;;;;;;;;;4563385;28;20115;-58
2022/07/28 09:45:05;;;;;;;1.35;0.80;;;;;;;;;;4564387;28;20039;-58
2022/07/28 09:47:23;;;;;;;0.93;0.70;;;;;;;;;;4546906;28;20122;-59
2022/07/28 09:49:41;;;;;;;1.48;0.68;;;;;;;;;;4553455;28;20033;-58
2022/07/28 09:52:00;;;;;;;0.88;0.57;;;;;;;;;;4556011;28;20032;-58
2022/07/28 09:54:12;;;;;;;0.95;0.75;;;;;;;;;;4567120;28;20028;-58
2022/07/28 09:56:24;;;;;;;1.05;0.50;;;;;;;;;;4547221;28;20607;-58
2022/07/28 09:58:35;;;;;;;1.73;0.60;;;;;;;;;;4541237;28;20170;-60
2022/07/28 10:00:46;;;;;;;0.93;0.52;;;;;;;;;;4557150;28;20155;-58
2022/07/28 10:02:56;;;;;;;1.15;0.80;;;;;;;;;;4566308;28;20035;-59
2022/07/28 10:05:07;;;;;;;1.70;0.70;;;;;;;;;;4565830;28;20055;-58
2022/07/28 10:07:18;;;;;;;0.85;0.65;;;;;;;;;;4566006;28;20127;-58
2022/07/28 10:09:28;;;;;;;1.75;0.77;;;;;;;;;;4546774;28;20031;-58
2022/07/28 10:11:39;;;;;;;1.58;0.70;;;;;;;;;;4566520;28;20059;-58
2022/07/28 10:14:03;;;;;;;1.42;0.70;;;;;;;;;;4565331;28;20368;-59
2022/07/28 10:16:14;;;;;;;1.50;0.70;;;;;;;;;;4546901;28;20041;-58
2022/07/28 10:18:24;;;;;;;0.80;0.60;;;;;;;;;;4566043;28;20044;-58
2022/07/28 10:20:35;;;;;;;1.20;0.65;;;;;;;;;;4567199;28;20044;-58
2022/07/28 10:22:46;;;;;;;1.05;0.52;;;;;;;;;;4566916;28;20056;-58
2022/07/28 10:24:57;;;;;;;0.80;0.60;;;;;;;;;;4566821;28;20769;-58
2022/07/28 10:27:08;;;;;;;1.35;0.65;;;;;;;;;;4554934;28;20747;-58
2022/07/28 10:29:20;;;;;;;2.33;0.73;;;;;;;;;;4565406;28;20047;-58
2022/07/28 10:31:56;;;;;;;0.50;0.50;;;;;;;;;;4565487;28;20515;-58
2022/07/28 10:34:09;;;;;;;1.30;0.57;;;;;;;;;;4559284;28;20908;-58
2022/07/28 10:36:22;;;;;;;1.67;0.80;;;;;;;;;;4564985;28;20984;-58
2022/07/28 10:38:35;;;;;;;1.10;0.63;;;;;;;;;;4565758;28;20618;-59
2022/07/28 10:40:46;;;;;;;1.08;0.80;;;;;;;;;;4565140;28;20214;-58
2022/07/28 10:42:57;;;;;;;1.48;0.60;;;;;;;;;;4548078;28;20041;-58
2022/07/28 10:45:10;;;;;;;1.38;0.60;;;;;;;;;;4546974;28;20728;-59
2022/07/28 10:47:22;;;;;;;0.73;0.70;;;;;;;;;;4567139;28;20493;-59
2022/07/28 10:49:32;;;;;;;0.57;0.52;;;;;;;;;;4565775;28;20114;-59
2022/07/28 10:51:44;;;;;;;0.77;0.60;;;;;;;;;;4564896;28;20090;-59
2022/07/28 10:54:01;;;;;;;0.90;0.45;;;;;;;;;;4554609;28;20619;-58
2022/07/28 10:56:37;;;;;;;1.02;0.70;;;;;;;;;;4548795;28;20155;-59
2022/07/28 10:59:11;;;;;;;0.90;0.70;;;;;;;;;;4565213;28;20029;-58
2022/07/28 11:01:36;;;;;;;0.90;0.60;;;;;;;;;;4550436;28;20044;-58
2022/07/28 11:03:47;;;;;;;1.13;0.80;;;;;;;;;;4557862;28;20087;-59
2022/07/28 11:05:57;;;;;;;0.82;0.55;;;;;;;;;;4565132;28;20638;-59
2022/07/28 11:08:25;;;;;;;1.67;0.60;;;;;;;;;;4567435;28;20079;-58
2022/07/28 11:10:47;;;;;;;1.05;0.73;;;;;;;;;;4564933;28;20135;-58
2022/07/28 11:12:58;;;;;;;0.98;0.60;;;;;;;;;;4565520;28;20113;-58
2022/07/28 11:15:32;;;;;;;1.52;0.70;;;;;;;;;;4565770;28;20881;-59
2022/07/28 11:17:56;;;;;;;1.15;0.70;;;;;;;;;;4565965;28;20028;-59
2022/07/28 11:20:06;;;;;;;1.27;0.60;;;;;;;;;;4543705;28;20888;-59
2022/07/28 11:22:38;;;;;;;0.63;0.60;;;;;;;;;;4550908;28;20044;-58
2022/07/28 11:25:06;;;;;;;1.45;0.60;;;;;;;;;;4564295;28;20051;-58
2022/07/28 11:27:16;;;;;;;1.10;0.60;;;;;;;;;;4564419;28;20059;-58
2022/07/28 11:29:27;;;;;;;2.20;0.70;;;;;;;;;;4536061;28;20044;-58
2022/07/28 11:31:44;;;;;;;0.82;0.68;;;;;;;;;;4540443;28;20048;-58
2022/07/28 11:33:55;;;;;;;1.17;0.60;;;;;;;;;;4565196;28;20028;-58
2022/07/28 11:36:06;;;;;;;0.80;0.50;;;;;;;;;;4564814;28;20039;-58
2022/07/28 11:38:16;;;;;;;0.80;0.60;;;;;;;;;;4564277;28;20031;-59
2022/07/28 11:40:43;;;;;;;0.63;0.50;;;;;;;;;;4565711;28;20033;-58
2022/07/28 11:43:16;;;;;;;0.82;0.70;;;;;;;;;;4566267;28;20195;-58
2022/07/28 11:45:26;;;;;;;1.13;0.65;;;;;;;;;;4563772;28;20043;-58
2022/07/28 11:47:36;;;;;;;0.68;0.60;;;;;;;;;;4565162;28;20448;-57
2022/07/28 11:50:13;;;;;;;1.13;0.60;;;;;;;;;;4566222;28;20032;-58
2022/07/28 11:52:24;;;;;;;0.90;0.60;;;;;;;;;;4544711;28;20080;-58
2022/07/28 11:54:38;;;;;;;1.40;0.60;;;;;;;;;;4565564;28;20038;-58
2022/07/28 11:56:57;;;;;;;1.73;0.80;;;;;;;;;;4549877;28;20029;-58
2022/07/28 11:59:09;;;;;;;1.10;0.70;;;;;;;;;;4557365;28;20120;-59
2022/07/28 12:01:20;;;;;;;1.63;0.70;;;;;;;;;;4564942;28;20032;-58
2022/07/28 12:03:32;;;;;;;1.45;1.13;;;;;;;;;;4565080;28;20040;-59
2022/07/28 12:05:55;;;;;;;1.38;0.85;;;;;;;;;;4565107;28;20032;-59
2022/07/28 12:08:07;;;;;;;1.73;0.60;;;;;;;;;;4563880;28;20583;-58
2022/07/28 12:10:34;;;;;;;0.50;0.50;;;;;;;;;;4564374;28;20032;-58
2022/07/28 12:12:52;;;;;;;1.35;0.70;;;;;;;;;;4563009;28;20039;-57
2022/07/28 12:15:03;;;;;;;0.40;0.40;;;;;;;;;;4550639;28;20027;-58
2022/07/28 12:17:14;;;;;;;1.75;0.90;;;;;;;;;;4539047;28;20032;-58
2022/07/28 12:19:30;;;;;;;1.48;0.70;;;;;;;;;;4565980;28;20641;-58
2022/07/28 12:21:48;;;;;;;1.57;0.63;;;;;;;;;;4565514;28;20516;-58
2022/07/28 12:23:58;;;;;;;1.65;0.80;;;;;;;;;;4549906;28;20033;-58
2022/07/28 12:26:09;;;;;;;1.20;0.70;;;;;;;;;;4564741;28;20395;-57
2022/07/28 12:28:21;;;;;;;1.10;0.70;;;;;;;;;;4566722;28;20035;-58
2022/07/28 12:30:32;;;;;;;1.27;0.63;;;;;;;;;;4545579;28;20037;-57
2022/07/28 12:32:42;;;;;;;0.60;0.60;;;;;;;;;;4565838;28;20036;-57
2022/07/28 12:34:53;;;;;;;1.63;0.73;;;;;;;;;;4564234;28;20155;-58
2022/07/28 12:37:05;;;;;;;0.88;0.60;;;;;;;;;;4565253;28;20314;-58
2022/07/28 12:39:21;;;;;;;1.50;0.70;;;;;;;;;;4556498;28;20032;-58
2022/07/28 12:41:33;;;;;;;1.23;0.70;;;;;;;;;;4548582;28;20037;-58
2022/07/28 12:43:52;;;;;;;0.70;0.60;;;;;;;;;;4564740;28;20039;-58
2022/07/28 12:46:02;;;;;;;1.17;0.70;;;;;;;;;;4564488;28;20048;-58
2022/07/28 12:48:13;;;;;;;0.82;0.70;;;;;;;;;;4564751;28;20477;-58
2022/07/28 12:50:24;;;;;;;1.23;0.70;;;;;;;;;;4564537;28;20746;-58
2022/07/28 12:52:35;;;;;;;1.05;0.80;;;;;;;;;;4565169;28;20028;-57
2022/07/28 12:54:46;;;;;;;0.98;0.60;;;;;;;;;;4546478;28;20300;-58
2022/07/28 12:56:56;;;;;;;0.90;0.57;;;;;;;;;;4564593;28;20039;-59
2022/07/28 12:59:08;;;;;;;1.20;0.70;;;;;;;;;;4565400;28;20091;-58
2022/07/28 13:01:18;;;;;;;1.58;1.00;;;;;;;;;;4545581;28;20147;-58
2022/07/28 13:03:29;;;;;;;0.70;0.70;;;;;;;;;;4565483;28;20156;-58
2022/07/28 13:08:08;;;;;;;0.90;0.73;;;;;;;;;;4549460;28;20032;-58
2022/07/28 13:10:19;;;;;;;1.52;0.80;;;;;;;;;;4564664;28;20033;-58
2022/07/28 13:12:29;;;;;;;1.00;0.63;;;;;;;;;;4549566;28;20119;-58
2022/07/28 13:14:42;;;;;;;1.33;0.73;;;;;;;;;;4563971;28;20062;-58
2022/07/28 13:16:56;;;;;;;1.40;0.80;;;;;;;;;;4564293;28;20042;-59
2022/07/28 13:19:19;;;;;;;1.25;0.70;;;;;;;;;;4533430;28;20140;-58